This is the latest recevied weather packets stored in our database for station/object WX0ABE-13. If no packets are shown the sender has not sent any weather packets the latest 10 day(s).
| Time | Temp. | Humidity | Pressure | Rain* | Wind** | Luminosity | Snow |
|---|---|---|---|---|---|---|---|
| 1788236763 | 22.78° C | 64% | 1018.3 hPa | 0 mm | - | 0 W/m² | - |
| 1788236459 | 22.22° C | 65% | 1018.4 hPa | 0 mm | - | 0 W/m² | - |
| 1788236155 | 22.22° C | 68% | 1018.4 hPa | 0 mm | - | 0 W/m² | - |
| 1788235855 | 21.67° C | 69% | 1018.3 hPa | 0 mm | - | 0 W/m² | - |
| 1788235554 | 22.22° C | 70% | 1018 hPa | 0 mm | - | 0 W/m² | - |
| 1788235249 | 22.78° C | 66% | 1018.1 hPa | 0 mm | - | 0 W/m² | - |
| 1788234947 | 22.78° C | 59% | 1018.1 hPa | 0 mm | - | 0 W/m² | - |
| 1788234646 | 22.78° C | 61% | 1017.7 hPa | 0 mm | - | 0 W/m² | - |
| 1788234345 | 23.33° C | 63% | 1017.6 hPa | 3.05 mm | - | 0 W/m² | - |
| 1788234045 | 25° C | 60% | 1017.8 hPa | 3.05 mm | - | 0 W/m² | - |
| 1788233746 | 26.67° C | 39% | 1017.6 hPa | 0 mm | - | 0 W/m² | - |
| 1788233439 | 26.67° C | 37% | 1017.4 hPa | 0 mm | - | 0 W/m² | - |
| 1788233138 | 26.67° C | 38% | 1017.5 hPa | 0 mm | - | 0 W/m² | - |
| 1788232833 | 26.67° C | 38% | 1017.4 hPa | 0 mm | - | 0 W/m² | - |
| 1788232529 | 26.67° C | 38% | 1017.4 hPa | 0 mm | - | 0 W/m² | - |
| 1788232225 | 26.67° C | 38% | 1017.5 hPa | 0 mm | - | 0 W/m² | - |
| 1788231925 | 26.67° C | 38% | 1017.5 hPa | 0 mm | - | 0 W/m² | - |
| 1788231624 | 26.67° C | 38% | 1017.4 hPa | 0 mm | - | 0 W/m² | - |
| 1788231319 | 26.67° C | 37% | 1017.2 hPa | 0 mm | - | 0 W/m² | - |
| 1788231019 | 26.67° C | 38% | 1017.3 hPa | 0 mm | - | 0 W/m² | - |
| 1788230714 | 26.67° C | 38% | 1017.2 hPa | 0 mm | - | 0 W/m² | - |
| 1788230413 | 26.67° C | 38% | 1017.2 hPa | 0 mm | - | 0 W/m² | - |
| 1788230113 | 26.67° C | 38% | 1017.1 hPa | 0 mm | - | 0 W/m² | - |
| 1788229808 | 26.67° C | 38% | 1017 hPa | 0 mm | - | 0 W/m² | - |
| 1788229503 | 26.67° C | 39% | 1016.7 hPa | 0 mm | - | 0 W/m² | - |
* Rain latest hour (hover to see other rain measurements)
** Current wind speed in m/s (hover to see current wind gust speed)